Time;durP1;ratioP1;P1;durP2;ratioP2;P2;SDS_P1;SDS_P2;PMS_P1;PMS_P2;Temp;Humidity;BMP_temperature;BMP_pressure;BME280_temperature;BME280_humidity;BME280_pressure;Samples;Min_cycle;Max_cycle;Signal;HPM_P1;HPM_P2
2022/06/03 00:00:22;;;;;;;9.40;5.10;;;;;;;;;;4363484;32;20019;-74
2022/06/03 00:03:06;;;;;;;7.82;5.30;;;;;;;;;;4362953;32;20027;-74
2022/06/03 00:05:43;;;;;;;6.72;5.22;;;;;;;;;;4347389;33;20027;-74
2022/06/03 00:08:47;;;;;;;5.62;4.80;;;;;;;;;;4347393;33;20103;-75
2022/06/03 00:11:12;;;;;;;7.05;5.25;;;;;;;;;;4332316;33;20054;-74
2022/06/03 00:13:41;;;;;;;10.05;5.85;;;;;;;;;;4330272;33;20024;-74
2022/06/03 00:16:24;;;;;;;7.50;4.72;;;;;;;;;;4347207;32;20388;-74
2022/06/03 00:19:07;;;;;;;6.90;4.70;;;;;;;;;;4363604;32;20019;-74
2022/06/03 00:21:47;;;;;;;8.70;5.20;;;;;;;;;;4372904;32;20102;-73
2022/06/03 00:24:31;;;;;;;8.77;4.53;;;;;;;;;;4363581;32;20053;-75
2022/06/03 00:27:02;;;;;;;7.78;4.85;;;;;;;;;;4363360;32;20062;-74
2022/06/03 00:29:33;;;;;;;6.55;4.78;;;;;;;;;;4362173;32;20066;-74
2022/06/03 00:32:04;;;;;;;8.75;4.85;;;;;;;;;;4363000;32;20015;-74
2022/06/03 00:34:41;;;;;;;7.35;4.40;;;;;;;;;;4347031;33;20073;-75
2022/06/03 00:37:16;;;;;;;9.32;4.75;;;;;;;;;;4348411;33;20032;-74
2022/06/03 00:39:50;;;;;;;7.05;4.53;;;;;;;;;;4361905;27;20043;-77
2022/06/03 00:42:43;;;;;;;7.80;4.80;;;;;;;;;;4345012;32;20031;-77
2022/06/03 00:48:53;;;;;;;7.65;4.45;;;;;;;;;;4330356;33;20055;-77
2022/06/03 00:51:34;;;;;;;8.50;4.97;;;;;;;;;;4330488;33;20397;-76
2022/06/03 00:54:14;;;;;;;9.45;5.00;;;;;;;;;;4329528;33;20123;-77
2022/06/03 01:00:01;;;;;;;5.70;4.62;;;;;;;;;;4361609;32;20455;-77
2022/06/03 01:02:49;;;;;;;5.20;4.15;;;;;;;;;;4365460;32;20085;-77
2022/06/03 01:05:35;;;;;;;9.98;4.55;;;;;;;;;;4363847;32;20113;-77
2022/06/03 01:08:01;;;;;;;8.15;4.20;;;;;;;;;;4361061;32;20019;-77
2022/06/03 01:10:28;;;;;;;;;;;;;;;;;;4361952;32;20093;-77
2022/06/03 01:13:23;;;;;;;7.15;4.75;;;;;;;;;;4361036;33;19985;-77
2022/06/03 01:16:07;;;;;;;7.55;4.32;;;;;;;;;;4361332;32;20039;-77
2022/06/03 01:18:50;;;;;;;7.15;4.65;;;;;;;;;;4362264;32;20089;-77
2022/06/03 01:21:34;;;;;;;6.10;4.03;;;;;;;;;;4376625;32;20080;-77
2022/06/03 01:23:59;;;;;;;9.63;4.45;;;;;;;;;;4362256;32;20058;-77
2022/06/03 01:26:43;;;;;;;7.25;4.28;;;;;;;;;;4361725;32;20031;-77
2022/06/03 01:29:27;;;;;;;6.55;4.35;;;;;;;;;;4360745;32;20023;-77
2022/06/03 01:31:58;;;;;;;8.05;4.03;;;;;;;;;;4347273;33;20095;-77
2022/06/03 01:34:24;;;;;;;7.93;4.03;;;;;;;;;;4361107;32;20055;-77
2022/06/03 01:37:10;;;;;;;6.25;4.18;;;;;;;;;;4360771;32;20028;-77
2022/06/03 01:39:46;;;;;;;5.22;4.43;;;;;;;;;;4382684;32;20042;-77
2022/06/03 01:42:32;;;;;;;5.95;4.00;;;;;;;;;;4377256;32;20054;-77
2022/06/03 01:45:09;;;;;;;8.32;4.22;;;;;;;;;;4376343;32;20042;-76
2022/06/03 01:47:43;;;;;;;7.22;4.28;;;;;;;;;;4375934;32;20416;-77
2022/06/03 01:50:17;;;;;;;6.37;3.97;;;;;;;;;;4375667;32;20019;-77
2022/06/03 01:53:13;;;;;;;6.85;4.12;;;;;;;;;;4376285;32;20058;-77
2022/06/03 01:55:54;;;;;;;9.07;4.32;;;;;;;;;;4375885;32;20065;-77
2022/06/03 01:58:19;;;;;;;7.53;4.22;;;;;;;;;;4376095;32;20054;-77
2022/06/03 02:01:00;;;;;;;7.10;4.40;;;;;;;;;;4376133;32;20090;-77
2022/06/03 02:03:42;;;;;;;5.93;4.03;;;;;;;;;;4377371;32;20057;-77
2022/06/03 02:06:15;;;;;;;7.97;3.90;;;;;;;;;;4375278;32;20039;-77
2022/06/03 02:08:55;;;;;;;6.57;5.00;;;;;;;;;;4375973;32;20080;-77
2022/06/03 02:11:26;;;;;;;7.15;4.45;;;;;;;;;;4361747;32;20027;-77
2022/06/03 02:14:10;;;;;;;7.43;3.92;;;;;;;;;;4376190;32;20031;-77
2022/06/03 02:16:54;;;;;;;5.00;3.92;;;;;;;;;;4375839;32;20054;-77
2022/06/03 02:19:34;;;;;;;5.40;4.45;;;;;;;;;;4375539;32;20023;-77
2022/06/03 02:22:02;;;;;;;7.47;4.10;;;;;;;;;;4375972;32;20039;-77
2022/06/03 02:24:55;;;;;;;8.35;3.95;;;;;;;;;;4389271;32;20042;-76
2022/06/03 02:27:20;;;;;;;5.12;4.25;;;;;;;;;;4391273;32;20049;-76
2022/06/03 02:30:27;;;;;;;5.95;3.92;;;;;;;;;;4390828;32;20023;-77
2022/06/03 02:33:11;;;;;;;8.50;4.50;;;;;;;;;;4369061;32;20084;-77
2022/06/03 02:44:48;;;;;;;8.63;4.00;;;;;;;;;;4388526;32;20080;-77
2022/06/03 02:47:32;;;;;;;7.37;4.53;;;;;;;;;;4390278;32;20088;-76
2022/06/03 02:50:28;;;;;;;;;;;;;;;;;;;;;
2022/06/03 02:53:12;;;;;;;7.62;4.22;;;;;;;;;;4328540;33;20040;-75
2022/06/03 02:56:03;;;;;;;5.55;4.00;;;;;;;;;;4389946;32;20050;-76
2022/06/03 02:58:45;;;;;;;6.28;3.70;;;;;;;;;;4383765;32;20019;-76
2022/06/03 03:01:29;;;;;;;5.07;4.40;;;;;;;;;;4390293;32;20023;-76
2022/06/03 03:04:19;;;;;;;6.57;4.03;;;;;;;;;;4389526;32;20030;-76
2022/06/03 03:13:32;;;;;;;5.62;3.97;;;;;;;;;;4351583;32;20074;-76
2022/06/03 03:16:21;;;;;;;5.93;4.28;;;;;;;;;;4361567;32;20451;-76
2022/06/03 03:18:46;;;;;;;5.37;4.07;;;;;;;;;;4367958;32;20027;-76
2022/06/03 03:21:21;;;;;;;9.15;4.47;;;;;;;;;;4374972;32;20365;-76
2022/06/03 03:23:51;;;;;;;5.10;4.15;;;;;;;;;;4375017;32;20093;-76
2022/06/03 03:26:35;;;;;;;9.02;5.00;;;;;;;;;;4375300;32;20067;-76
2022/06/03 03:29:13;;;;;;;11.68;4.37;;;;;;;;;;4374606;32;20478;-76
2022/06/03 03:32:10;;;;;;;4.85;4.22;;;;;;;;;;4377140;32;20069;-76
2022/06/03 03:34:56;;;;;;;6.32;3.92;;;;;;;;;;4346503;33;20432;-76
2022/06/03 03:37:43;;;;;;;5.05;4.55;;;;;;;;;;4340675;33;20338;-75
2022/06/03 03:40:24;;;;;;;5.87;4.35;;;;;;;;;;4362357;32;20043;-76
2022/06/03 03:42:56;;;;;;;6.32;4.87;;;;;;;;;;4367917;32;20377;-76
2022/06/03 03:45:40;;;;;;;6.72;4.30;;;;;;;;;;4379150;32;20384;-76
2022/06/03 03:48:25;;;;;;;5.97;4.65;;;;;;;;;;4392945;32;20056;-76
2022/06/03 03:51:07;;;;;;;6.45;4.40;;;;;;;;;;4392843;32;20049;-76
2022/06/03 03:53:57;;;;;;;10.80;5.30;;;;;;;;;;4391691;32;20023;-76
2022/06/03 03:56:43;;;;;;;7.75;4.93;;;;;;;;;;4392533;32;20091;-76
2022/06/03 03:59:14;;;;;;;9.00;4.65;;;;;;;;;;4392339;32;20391;-75
2022/06/03 04:01:48;;;;;;;6.70;4.40;;;;;;;;;;4392512;32;20026;-76
2022/06/03 04:04:17;;;;;;;7.45;4.35;;;;;;;;;;4391727;32;20066;-76
2022/06/03 04:07:02;;;;;;;6.30;5.43;;;;;;;;;;4392265;32;20034;-76
2022/06/03 04:09:47;;;;;;;5.82;4.78;;;;;;;;;;4392404;32;20069;-76
2022/06/03 04:12:30;;;;;;;7.25;4.93;;;;;;;;;;4392280;32;20054;-76
2022/06/03 04:15:12;;;;;;;8.57;5.05;;;;;;;;;;4377289;32;20031;-76
2022/06/03 04:17:43;;;;;;;7.72;5.28;;;;;;;;;;4377283;32;20062;-76
2022/06/03 04:23:25;;;;;;;8.70;4.62;;;;;;;;;;4377054;32;20098;-75
2022/06/03 04:26:09;;;;;;;7.70;5.28;;;;;;;;;;4381253;32;20168;-76
2022/06/03 04:28:53;;;;;;;7.40;5.32;;;;;;;;;;4391660;32;20058;-75
2022/06/03 04:31:34;;;;;;;9.77;5.25;;;;;;;;;;4392001;32;20057;-75
2022/06/03 04:34:11;;;;;;;7.65;4.85;;;;;;;;;;4383313;32;20081;-76
2022/06/03 04:36:56;;;;;;;7.75;5.07;;;;;;;;;;4376800;32;20092;-76
2022/06/03 04:42:46;;;;;;;5.80;4.70;;;;;;;;;;4376027;32;20061;-76
2022/06/03 04:45:31;;;;;;;10.05;5.10;;;;;;;;;;4376599;32;20038;-77
2022/06/03 04:48:12;;;;;;;9.32;5.57;;;;;;;;;;4376735;32;20022;-76
2022/06/03 04:51:00;;;;;;;11.93;5.20;;;;;;;;;;4376368;32;20038;-76
2022/06/03 04:53:44;;;;;;;7.72;4.80;;;;;;;;;;4376842;32;20018;-76
2022/06/03 04:56:12;;;;;;;7.25;5.57;;;;;;;;;;4376628;32;20050;-77
2022/06/03 04:59:03;;;;;;;5.72;5.12;;;;;;;;;;4376421;32;20114;-76
2022/06/03 05:01:28;;;;;;;7.32;5.15;;;;;;;;;;4376958;32;20065;-77
2022/06/03 05:04:12;;;;;;;10.15;5.37;;;;;;;;;;4376339;32;20063;-76
2022/06/03 05:06:58;;;;;;;6.57;4.72;;;;;;;;;;4383226;32;20039;-76
2022/06/03 05:09:42;;;;;;;7.65;5.55;;;;;;;;;;4391315;32;20079;-76
2022/06/03 05:12:31;;;;;;;6.70;5.40;;;;;;;;;;4391278;32;20022;-76
2022/06/03 05:15:16;;;;;;;8.98;6.07;;;;;;;;;;4390914;32;20350;-76
2022/06/03 05:17:50;;;;;;;10.35;5.62;;;;;;;;;;4390810;32;20030;-77
2022/06/03 05:20:15;;;;;;;7.45;4.85;;;;;;;;;;4391960;32;20039;-75
2022/06/03 05:22:52;;;;;;;10.50;5.80;;;;;;;;;;4390718;32;20049;-76
2022/06/03 05:25:26;;;;;;;16.25;6.53;;;;;;;;;;4391096;32;20447;-76
2022/06/03 05:28:07;;;;;;;9.57;5.50;;;;;;;;;;4391541;32;20034;-76
2022/06/03 05:30:38;;;;;;;6.85;5.30;;;;;;;;;;4391028;32;20030;-76
2022/06/03 05:33:27;;;;;;;7.22;5.47;;;;;;;;;;4388945;32;20089;-76
2022/06/03 05:35:52;;;;;;;6.45;5.80;;;;;;;;;;4362426;32;20087;-76
2022/06/03 05:38:45;;;;;;;;;;;;;;;;;;;;;
2022/06/03 05:44:33;;;;;;;9.40;5.78;;;;;;;;;;4384252;32;20064;-76
2022/06/03 05:47:01;;;;;;;10.30;5.53;;;;;;;;;;4390918;32;20065;-75
2022/06/03 05:49:42;;;;;;;9.45;6.18;;;;;;;;;;4390322;32;20410;-75
2022/06/03 05:52:15;;;;;;;7.37;5.70;;;;;;;;;;4390732;32;20380;-76
2022/06/03 05:54:59;;;;;;;8.15;5.57;;;;;;;;;;4378421;32;20045;-76
2022/06/03 05:57:43;;;;;;;6.37;5.28;;;;;;;;;;4375367;32;20116;-76
2022/06/03 06:03:16;;;;;;;6.72;5.15;;;;;;;;;;4375902;32;20105;-74
2022/06/03 06:05:45;;;;;;;9.40;5.60;;;;;;;;;;4390482;32;20042;-75
2022/06/03 06:14:59;;;;;;;6.45;5.78;;;;;;;;;;4331996;33;20028;-76
2022/06/03 06:20:30;;;;;;;9.60;4.90;;;;;;;;;;4328482;33;20075;-76
2022/06/03 06:23:18;;;;;;;9.30;5.57;;;;;;;;;;4329115;33;20082;-76
2022/06/03 06:26:03;;;;;;;7.35;5.18;;;;;;;;;;4358743;32;20594;-76
2022/06/03 06:28:29;;;;;;;8.27;5.55;;;;;;;;;;4375791;32;20023;-77
2022/06/03 06:31:03;;;;;;;7.97;5.10;;;;;;;;;;4361551;32;20088;-77
2022/06/03 06:33:34;;;;;;;10.40;5.45;;;;;;;;;;4375550;32;20380;-75
2022/06/03 06:36:15;;;;;;;6.50;5.70;;;;;;;;;;4375530;32;20015;-78
2022/06/03 06:38:44;;;;;;;9.98;6.65;;;;;;;;;;4375178;32;20027;-76
2022/06/03 06:41:19;;;;;;;6.30;5.25;;;;;;;;;;4375550;32;20020;-75
2022/06/03 06:44:10;;;;;;;6.15;4.95;;;;;;;;;;4379817;32;20472;-76
2022/06/03 06:46:54;;;;;;;7.37;5.30;;;;;;;;;;4389880;32;20423;-74
2022/06/03 06:49:52;;;;;;;5.68;4.80;;;;;;;;;;4389909;32;20080;-76
2022/06/03 06:52:36;;;;;;;7.62;5.43;;;;;;;;;;4390350;32;20421;-76
2022/06/03 06:55:22;;;;;;;7.50;5.25;;;;;;;;;;4376639;32;20094;-75
2022/06/03 06:57:54;;;;;;;8.05;5.40;;;;;;;;;;4375020;32;20043;-77
2022/06/03 07:00:24;;;;;;;10.63;6.05;;;;;;;;;;4374804;32;20053;-77
2022/06/03 07:03:08;;;;;;;6.10;4.60;;;;;;;;;;4374771;32;20456;-76
2022/06/03 07:05:41;;;;;;;7.10;5.90;;;;;;;;;;4375245;32;20027;-77
2022/06/03 07:08:16;;;;;;;7.43;5.35;;;;;;;;;;4378363;32;20057;-76
2022/06/03 07:11:01;;;;;;;9.10;5.57;;;;;;;;;;4378006;32;20143;-76
2022/06/03 07:13:40;;;;;;;15.93;5.60;;;;;;;;;;4378519;32;20026;-77
2022/06/03 07:16:07;;;;;;;12.80;6.12;;;;;;;;;;4364218;32;20019;-77
2022/06/03 07:21:40;;;;;;;6.72;4.55;;;;;;;;;;4377826;32;20454;-76
2022/06/03 07:27:50;;;;;;;9.90;5.18;;;;;;;;;;4379255;32;20026;-76
2022/06/03 07:30:20;;;;;;;8.88;4.53;;;;;;;;;;4378890;32;20395;-76
2022/06/03 07:32:57;;;;;;;8.48;5.35;;;;;;;;;;4392489;32;20050;-76
2022/06/03 07:38:29;;;;;;;8.48;5.03;;;;;;;;;;4345896;33;20081;-77
2022/06/03 07:41:29;;;;;;;5.65;4.50;;;;;;;;;;4331172;33;20071;-78
2022/06/03 07:44:01;;;;;;;9.98;4.37;;;;;;;;;;4325963;33;20079;-77
2022/06/03 07:46:36;;;;;;;5.28;4.78;;;;;;;;;;4322289;33;20015;-77
2022/06/03 07:49:19;;;;;;;7.82;4.97;;;;;;;;;;4362515;32;20094;-76
2022/06/03 07:52:17;;;;;;;6.10;4.50;;;;;;;;;;4363584;32;20437;-76
2022/06/03 07:55:11;;;;;;;8.75;5.03;;;;;;;;;;4339931;33;20031;-76
2022/06/03 07:57:36;;;;;;;8.48;4.82;;;;;;;;;;4342377;33;20024;-76
2022/06/03 08:00:04;;;;;;;8.60;5.10;;;;;;;;;;4347112;33;20081;-73
2022/06/03 08:02:30;;;;;;;5.87;4.43;;;;;;;;;;4347680;33;20032;-76
2022/06/03 08:05:16;;;;;;;8.75;5.37;;;;;;;;;;4369773;32;20097;-77
2022/06/03 08:19:41;;;;;;;9.40;5.40;;;;;;;;;;4330763;33;20382;-76
2022/06/03 08:25:04;;;;;;;6.30;4.20;;;;;;;;;;4359875;32;20065;-77
2022/06/03 08:27:33;;;;;;;7.78;4.40;;;;;;;;;;4363347;32;20035;-77
2022/06/03 08:30:21;;;;;;;7.43;5.18;;;;;;;;;;4376963;32;20027;-76
2022/06/03 08:32:49;;;;;;;7.28;4.80;;;;;;;;;;4376983;32;20023;-77
2022/06/03 08:35:25;;;;;;;5.93;4.47;;;;;;;;;;4376162;32;20093;-76
2022/06/03 08:38:17;;;;;;;6.37;3.75;;;;;;;;;;4376896;32;20027;-77
2022/06/03 08:40:45;;;;;;;6.20;4.45;;;;;;;;;;4388562;32;20038;-76
2022/06/03 08:43:30;;;;;;;5.03;4.22;;;;;;;;;;4391151;32;20031;-76
2022/06/03 08:46:07;;;;;;;7.93;4.57;;;;;;;;;;4361453;32;20370;-76
2022/06/03 08:48:35;;;;;;;7.15;4.03;;;;;;;;;;4362261;32;20077;-77
2022/06/03 08:51:04;;;;;;;6.15;4.18;;;;;;;;;;4362050;32;20027;-76
2022/06/03 08:53:45;;;;;;;6.62;4.18;;;;;;;;;;4361572;32;20027;-77
2022/06/03 08:56:17;;;;;;;4.90;3.83;;;;;;;;;;4361794;32;20046;-76
2022/06/03 08:59:21;;;;;;;7.30;4.60;;;;;;;;;;4362079;32;20035;-76
2022/06/03 09:01:48;;;;;;;8.60;5.50;;;;;;;;;;4360645;32;20032;-77
2022/06/03 09:04:34;;;;;;;8.00;6.18;;;;;;;;;;4370610;32;20425;-77
2022/06/03 09:07:21;;;;;;;8.30;5.37;;;;;;;;;;4391427;32;20058;-77
2022/06/03 09:09:56;;;;;;;9.57;6.28;;;;;;;;;;4391288;32;20056;-76
2022/06/03 09:12:47;;;;;;;10.45;6.10;;;;;;;;;;4391205;32;20053;-77
2022/06/03 09:15:17;;;;;;;8.13;4.80;;;;;;;;;;4390312;32;20080;-76
2022/06/03 09:17:53;;;;;;;6.50;4.50;;;;;;;;;;4391297;32;20038;-76
2022/06/03 09:20:24;;;;;;;10.90;4.95;;;;;;;;;;4391574;32;20520;-76
2022/06/03 09:22:51;;;;;;;5.32;4.82;;;;;;;;;;4391445;32;20026;-76
2022/06/03 09:28:06;;;;;;;6.00;4.32;;;;;;;;;;4366310;32;20058;-76
2022/06/03 09:30:39;;;;;;;5.32;4.10;;;;;;;;;;4390497;32;20061;-76
2022/06/03 09:33:09;;;;;;;6.03;3.90;;;;;;;;;;4390628;32;20066;-77
2022/06/03 09:35:38;;;;;;;5.30;3.65;;;;;;;;;;4391327;32;20058;-76
2022/06/03 09:38:05;;;;;;;12.57;4.18;;;;;;;;;;4390914;32;20094;-76
2022/06/03 09:40:40;;;;;;;8.20;4.43;;;;;;;;;;4390622;32;20043;-76
2022/06/03 09:43:23;;;;;;;9.00;4.43;;;;;;;;;;4386829;32;20081;-75
2022/06/03 09:45:50;;;;;;;5.43;3.62;;;;;;;;;;4376806;32;20413;-77
2022/06/03 09:48:17;;;;;;;10.38;4.53;;;;;;;;;;4376493;32;20061;-76
2022/06/03 09:50:45;;;;;;;6.43;3.97;;;;;;;;;;4376361;32;20035;-76
2022/06/03 09:53:11;;;;;;;6.00;3.78;;;;;;;;;;4367039;32;20084;-76
2022/06/03 09:55:41;;;;;;;6.72;3.87;;;;;;;;;;4391713;32;20030;-77
2022/06/03 09:58:10;;;;;;;5.35;3.28;;;;;;;;;;4391603;32;20046;-76
2022/06/03 10:00:51;;;;;;;8.93;3.12;;;;;;;;;;4391482;32;20084;-76
2022/06/03 10:03:17;;;;;;;8.65;3.50;;;;;;;;;;4386187;32;20055;-76
2022/06/03 10:05:45;;;;;;;4.85;3.12;;;;;;;;;;4376624;32;20100;-76
2022/06/03 10:14:10;;;;;;;8.90;3.28;;;;;;;;;;4375553;32;20045;-75
2022/06/03 10:16:42;;;;;;;6.75;3.45;;;;;;;;;;4375970;32;20019;-76
2022/06/03 10:19:10;;;;;;;5.78;3.00;;;;;;;;;;4375359;32;20057;-75
2022/06/03 10:21:39;;;;;;;6.53;3.42;;;;;;;;;;4376128;32;20031;-76
2022/06/03 10:24:06;;;;;;;3.97;2.78;;;;;;;;;;4371102;32;20055;-76
2022/06/03 10:26:58;;;;;;;;;;;;;;;;;;;;;
2022/06/03 10:29:27;;;;;;;6.53;2.80;;;;;;;;;;4390820;32;20076;-76
2022/06/03 10:31:55;;;;;;;2.62;2.28;;;;;;;;;;4390190;32;20023;-76
2022/06/03 10:34:31;;;;;;;4.15;2.90;;;;;;;;;;4378501;32;20019;-76
2022/06/03 10:37:18;;;;;;;;;;;;;;;;;;;;;
2022/06/03 10:39:44;;;;;;;8.65;2.75;;;;;;;;;;4375313;32;20046;-76
2022/06/03 10:42:17;;;;;;;4.57;2.67;;;;;;;;;;4378317;32;20027;-75
2022/06/03 10:44:49;;;;;;;4.93;2.95;;;;;;;;;;4391466;32;20034;-77
2022/06/03 10:47:17;;;;;;;3.50;2.83;;;;;;;;;;4393466;32;20086;-75
2022/06/03 10:49:51;;;;;;;3.85;2.53;;;;;;;;;;4392989;32;20385;-76
2022/06/03 11:01:11;;;;;;;4.18;2.72;;;;;;;;;;4362872;32;20381;-76
2022/06/03 11:09:36;;;;;;;3.58;2.50;;;;;;;;;;4378519;32;20053;-76
2022/06/03 11:12:22;;;;;;;9.45;2.20;;;;;;;;;;4378380;32;20105;-76
2022/06/03 11:24:34;;;;;;;4.90;1.87;;;;;;;;;;4336374;33;20106;-76
2022/06/03 11:30:37;;;;;;;5.87;2.00;;;;;;;;;;4287390;33;20108;-77
2022/06/03 11:33:13;;;;;;;2.83;1.70;;;;;;;;;;4328667;33;20475;-76
2022/06/03 11:41:48;;;;;;;3.35;1.70;;;;;;;;;;4344278;33;20067;-77
2022/06/03 11:44:48;;;;;;;;;;;;;;;;;;;;;
2022/06/03 11:47:51;;;;;;;;;;;;;;;;;;;;;
2022/06/03 11:53:34;;;;;;;4.03;1.85;;;;;;;;;;4297107;33;20471;-77
2022/06/03 11:57:01;;;;;;;;;;;;;;;;;;;;;
2022/06/03 11:59:23;;;;;;;3.65;1.90;;;;;;;;;;4292286;33;20069;-77
2022/06/03 12:02:09;;;;;;;5.03;1.87;;;;;;;;;;4336294;33;20039;-77
2022/06/03 12:07:41;;;;;;;4.37;1.70;;;;;;;;;;4362641;32;20457;-77
2022/06/03 12:10:41;;;;;;;3.92;2.22;;;;;;;;;;4362049;32;20015;-77
2022/06/03 12:13:18;;;;;;;6.20;2.00;;;;;;;;;;4361766;32;20405;-77
2022/06/03 12:16:00;;;;;;;2.12;1.77;;;;;;;;;;4363456;32;20019;-76
2022/06/03 12:18:54;;;;;;;6.60;2.50;;;;;;;;;;4361889;33;20085;-77
2022/06/03 12:24:30;;;;;;;7.20;2.30;;;;;;;;;;4382180;32;20174;-78
2022/06/03 12:27:27;;;;;;;4.03;2.00;;;;;;;;;;4391730;32;20049;-78
2022/06/03 12:33:01;;;;;;;2.92;1.95;;;;;;;;;;4391226;32;20415;-76
2022/06/03 12:35:47;;;;;;;5.85;2.20;;;;;;;;;;4362615;32;20015;-76
2022/06/03 12:38:18;;;;;;;4.87;1.98;;;;;;;;;;4376755;32;20050;-76
2022/06/03 12:43:46;;;;;;;4.03;2.08;;;;;;;;;;4384824;32;20109;-77
2022/06/03 12:49:47;;;;;;;2.45;1.80;;;;;;;;;;4376844;32;20519;-77
2022/06/03 12:55:21;;;;;;;3.25;1.62;;;;;;;;;;4361139;32;20038;-76
2022/06/03 12:57:47;;;;;;;8.15;2.37;;;;;;;;;;4348328;33;20012;-77
2022/06/03 13:00:24;;;;;;;4.00;1.92;;;;;;;;;;4361346;32;20088;-78
2022/06/03 13:02:55;;;;;;;2.33;1.87;;;;;;;;;;4361390;32;20089;-78
2022/06/03 13:05:43;;;;;;;1.75;1.48;;;;;;;;;;4347351;33;20370;-77
2022/06/03 13:08:12;;;;;;;3.28;1.55;;;;;;;;;;4359817;32;20027;-77
2022/06/03 13:18:20;;;;;;;;;;;;;;;;;;;;;
2022/06/03 13:20:15;;;;;;;25.08;4.18;;;;;;;;;;4366715;32;20027;-76
2022/06/03 13:23:17;;;;;;;;;;;;;;;;;;;;;
2022/06/03 13:25:45;;;;;;;3.17;1.83;;;;;;;;;;4376349;32;20417;-77
2022/06/03 13:28:17;;;;;;;2.17;1.55;;;;;;;;;;4376075;32;20057;-78
2022/06/03 13:30:43;;;;;;;4.30;1.80;;;;;;;;;;4375675;32;20055;-77
2022/06/03 13:33:22;;;;;;;1.92;1.65;;;;;;;;;;4377058;32;20050;-77
2022/06/03 13:36:02;;;;;;;2.62;1.75;;;;;;;;;;4390043;32;20060;-77
2022/06/03 13:38:42;;;;;;;5.05;1.83;;;;;;;;;;4390432;32;20034;-77
2022/06/03 13:47:35;;;;;;;4.28;1.70;;;;;;;;;;4329146;33;20032;-77
2022/06/03 13:50:21;;;;;;;4.47;1.70;;;;;;;;;;4329165;33;20039;-77
2022/06/03 13:53:08;;;;;;;5.12;1.80;;;;;;;;;;4376060;32;20083;-76
2022/06/03 13:58:46;;;;;;;3.60;1.77;;;;;;;;;;4375106;32;20130;-76
2022/06/03 14:01:24;;;;;;;2.67;1.45;;;;;;;;;;4375557;32;20031;-77
2022/06/03 14:04:01;;;;;;;1.83;1.50;;;;;;;;;;4380059;32;20096;-76
2022/06/03 14:06:29;;;;;;;5.12;1.70;;;;;;;;;;4390661;32;20023;-78
2022/06/03 14:09:30;;;;;;;3.87;1.50;;;;;;;;;;4390028;32;20091;-78
2022/06/03 14:11:59;;;;;;;3.17;1.70;;;;;;;;;;4379569;32;20129;-77
2022/06/03 14:17:33;;;;;;;2.45;1.67;;;;;;;;;;4375498;32;20487;-77
2022/06/03 14:26:23;;;;;;;2.78;1.65;;;;;;;;;;4314227;33;20112;-76
2022/06/03 14:28:59;;;;;;;2.85;1.50;;;;;;;;;;4313484;33;20111;-77
2022/06/03 14:31:36;;;;;;;3.92;1.62;;;;;;;;;;4301854;33;20434;-76
2022/06/03 14:34:33;;;;;;;2.67;1.98;;;;;;;;;;4340307;32;20061;-76
2022/06/03 14:37:00;;;;;;;3.15;1.70;;;;;;;;;;4374934;32;20046;-76
2022/06/03 14:39:39;;;;;;;5.93;1.70;;;;;;;;;;4374713;32;20138;-75
2022/06/03 14:42:11;;;;;;;3.87;1.80;;;;;;;;;;4375338;32;20050;-76
2022/06/03 14:44:40;;;;;;;4.22;1.45;;;;;;;;;;4375055;32;20035;-76
2022/06/03 14:47:07;;;;;;;7.22;2.00;;;;;;;;;;4375298;32;20115;-76
2022/06/03 14:49:36;;;;;;;3.72;1.98;;;;;;;;;;4373977;32;20085;-76
2022/06/03 14:52:14;;;;;;;3.67;1.90;;;;;;;;;;4375100;32;20096;-75
2022/06/03 14:54:43;;;;;;;4.53;1.98;;;;;;;;;;4375119;32;20409;-76
2022/06/03 14:57:20;;;;;;;3.22;1.90;;;;;;;;;;4374927;32;20052;-76
2022/06/03 14:59:54;;;;;;;5.47;2.05;;;;;;;;;;4373526;32;20113;-76
2022/06/03 15:02:25;;;;;;;4.15;2.40;;;;;;;;;;4375316;32;20373;-75
2022/06/03 15:04:56;;;;;;;6.90;1.70;;;;;;;;;;4361002;32;20053;-76
2022/06/03 15:07:24;;;;;;;6.50;2.20;;;;;;;;;;4374690;32;20393;-76
2022/06/03 15:09:50;;;;;;;4.30;1.65;;;;;;;;;;4374530;32;20065;-76
2022/06/03 15:12:17;;;;;;;2.70;1.85;;;;;;;;;;4374674;32;20113;-75
2022/06/03 15:14:43;;;;;;;5.57;1.60;;;;;;;;;;4374534;32;20031;-76
2022/06/03 15:17:13;;;;;;;2.78;1.70;;;;;;;;;;4375027;32;20136;-76
2022/06/03 15:19:48;;;;;;;1.75;1.50;;;;;;;;;;4374588;32;20318;-74
2022/06/03 15:22:27;;;;;;;8.77;2.33;;;;;;;;;;4374584;32;20046;-76
2022/06/03 15:25:25;;;;;;;2.10;1.90;;;;;;;;;;4384495;32;20393;-75
2022/06/03 15:28:17;;;;;;;2.58;1.70;;;;;;;;;;4391372;32;20027;-76
2022/06/03 15:30:54;;;;;;;7.45;2.25;;;;;;;;;;4393069;32;20408;-77
2022/06/03 15:33:24;;;;;;;5.53;2.12;;;;;;;;;;4392562;32;20298;-76
2022/06/03 15:36:04;;;;;;;2.75;1.90;;;;;;;;;;4377731;32;20057;-77
2022/06/03 15:38:35;;;;;;;4.90;2.10;;;;;;;;;;4377353;32;20022;-75
2022/06/03 15:41:03;;;;;;;3.53;2.05;;;;;;;;;;4377346;32;20045;-76
2022/06/03 15:43:33;;;;;;;4.30;1.90;;;;;;;;;;4377473;32;20077;-76
2022/06/03 15:45:58;;;;;;;5.25;1.80;;;;;;;;;;4377379;32;20019;-76
2022/06/03 15:48:25;;;;;;;4.93;1.92;;;;;;;;;;4376946;32;20045;-76
2022/06/03 15:51:05;;;;;;;6.68;2.15;;;;;;;;;;4377345;32;20085;-77
2022/06/03 15:53:50;;;;;;;5.57;2.42;;;;;;;;;;4377138;32;20077;-73
2022/06/03 15:56:22;;;;;;;6.60;2.30;;;;;;;;;;4392211;32;20070;-76
2022/06/03 15:58:51;;;;;;;3.55;2.00;;;;;;;;;;4392184;32;20027;-76
2022/06/03 16:01:36;;;;;;;4.10;2.37;;;;;;;;;;4391941;32;20121;-76
2022/06/03 16:04:13;;;;;;;2.75;1.95;;;;;;;;;;4392124;32;20080;-75
2022/06/03 16:07:00;;;;;;;6.37;2.08;;;;;;;;;;4378118;32;20051;-76
2022/06/03 16:09:46;;;;;;;3.35;1.90;;;;;;;;;;4392121;32;20058;-75
2022/06/03 16:12:23;;;;;;;3.10;1.87;;;;;;;;;;4392115;32;20359;-75
2022/06/03 16:15:08;;;;;;;5.10;1.77;;;;;;;;;;4384503;32;20034;-76
2022/06/03 16:17:45;;;;;;;5.53;1.83;;;;;;;;;;4377623;32;20037;-76
2022/06/03 16:20:12;;;;;;;5.32;1.90;;;;;;;;;;4363684;32;20027;-75
2022/06/03 16:22:56;;;;;;;6.05;2.47;;;;;;;;;;4377305;32;20027;-76
2022/06/03 16:25:30;;;;;;;6.90;2.08;;;;;;;;;;4387436;32;20053;-75
2022/06/03 16:28:29;;;;;;;6.28;2.30;;;;;;;;;;4391506;32;20052;-75
2022/06/03 16:30:57;;;;;;;5.87;2.35;;;;;;;;;;4391803;32;20053;-75
2022/06/03 16:33:22;;;;;;;5.47;2.25;;;;;;;;;;4391744;32;20106;-76
2022/06/03 16:36:11;;;;;;;3.08;2.00;;;;;;;;;;4390626;32;20081;-75
2022/06/03 16:38:47;;;;;;;4.68;2.30;;;;;;;;;;4391503;32;20065;-76
2022/06/03 16:41:42;;;;;;;7.35;2.37;;;;;;;;;;4391831;32;20045;-76
2022/06/03 16:44:25;;;;;;;7.07;2.30;;;;;;;;;;4389388;32;20094;-74
2022/06/03 16:47:04;;;;;;;4.10;2.05;;;;;;;;;;4376586;32;20030;-74
2022/06/03 16:49:44;;;;;;;6.72;2.22;;;;;;;;;;4377346;32;20098;-74
2022/06/03 16:52:11;;;;;;;5.55;2.00;;;;;;;;;;4376897;32;20065;-76
2022/06/03 16:54:55;;;;;;;4.37;2.10;;;;;;;;;;4380909;32;20093;-75
2022/06/03 16:57:24;;;;;;;6.22;3.62;;;;;;;;;;4391587;32;20353;-73
2022/06/03 17:00:05;;;;;;;9.40;3.53;;;;;;;;;;4391074;32;20385;-76
2022/06/03 17:02:31;;;;;;;5.40;3.33;;;;;;;;;;4377490;32;20068;-73
2022/06/03 17:04:56;;;;;;;5.00;2.67;;;;;;;;;;4383936;32;20097;-74
2022/06/03 17:07:42;;;;;;;3.53;2.40;;;;;;;;;;4376308;32;20031;-76
2022/06/03 17:10:09;;;;;;;5.10;2.47;;;;;;;;;;4375500;32;20032;-75
2022/06/03 17:12:35;;;;;;;2.85;1.92;;;;;;;;;;4376746;32;20015;-76
2022/06/03 17:15:04;;;;;;;7.60;2.37;;;;;;;;;;4382820;32;20058;-75
2022/06/03 17:17:31;;;;;;;2.87;2.00;;;;;;;;;;4390879;32;20030;-75
2022/06/03 17:20:33;;;;;;;7.68;2.45;;;;;;;;;;4391548;32;20019;-76
2022/06/03 17:23:18;;;;;;;6.75;2.45;;;;;;;;;;4377086;32;20041;-76
2022/06/03 17:25:44;;;;;;;7.60;2.42;;;;;;;;;;4390434;32;20097;-76
2022/06/03 17:28:31;;;;;;;6.53;2.67;;;;;;;;;;4391284;32;20023;-75
2022/06/03 17:31:12;;;;;;;4.55;2.12;;;;;;;;;;4390684;32;20416;-76
2022/06/03 17:33:52;;;;;;;5.85;3.35;;;;;;;;;;4390983;32;20338;-75
2022/06/03 17:36:22;;;;;;;6.65;2.40;;;;;;;;;;4376442;32;20053;-75
2022/06/03 17:38:56;;;;;;;7.15;2.83;;;;;;;;;;4375753;32;20084;-75
2022/06/03 17:41:26;;;;;;;5.78;2.55;;;;;;;;;;4375849;32;20039;-76
2022/06/03 17:43:56;;;;;;;5.60;3.15;;;;;;;;;;4375447;32;20089;-75
2022/06/03 17:46:27;;;;;;;7.18;2.40;;;;;;;;;;4389802;32;20113;-76
2022/06/03 17:49:22;;;;;;;9.20;2.33;;;;;;;;;;4390667;32;20329;-75
2022/06/03 17:58:30;;;;;;;6.72;2.58;;;;;;;;;;4375822;32;20057;-76
2022/06/03 18:00:58;;;;;;;7.78;2.58;;;;;;;;;;4370798;32;20046;-75
2022/06/03 18:03:30;;;;;;;5.20;2.22;;;;;;;;;;4375511;32;20069;-76
2022/06/03 18:06:08;;;;;;;6.57;2.65;;;;;;;;;;4386539;32;20050;-76
2022/06/03 18:08:43;;;;;;;6.15;2.75;;;;;;;;;;4390906;32;20416;-75
2022/06/03 18:11:16;;;;;;;5.43;2.60;;;;;;;;;;4391655;32;20056;-75
2022/06/03 18:13:47;;;;;;;3.75;2.17;;;;;;;;;;4390769;32;20076;-76
2022/06/03 18:16:24;;;;;;;7.12;2.55;;;;;;;;;;4390237;32;20026;-75
2022/06/03 18:18:49;;;;;;;6.25;2.22;;;;;;;;;;4390776;32;20019;-77
2022/06/03 18:21:20;;;;;;;7.95;2.67;;;;;;;;;;4390014;32;20080;-75
2022/06/03 18:24:05;;;;;;;4.60;2.47;;;;;;;;;;4390129;32;20153;-75
2022/06/03 18:26:46;;;;;;;9.15;2.97;;;;;;;;;;4389488;32;20049;-76
2022/06/03 18:29:12;;;;;;;6.85;2.58;;;;;;;;;;4390681;32;20109;-73
2022/06/03 18:31:54;;;;;;;6.25;3.12;;;;;;;;;;4390395;32;20023;-77
2022/06/03 18:34:19;;;;;;;9.98;2.78;;;;;;;;;;4389641;32;20045;-75
2022/06/03 18:40:19;;;;;;;7.93;2.75;;;;;;;;;;4390407;32;20108;-75